createdAt,value
2018-03-18T00:00:35.913Z,98423.55
2018-03-18T00:03:03.764Z,98439.56
2018-03-18T00:05:32.485Z,98450.78
2018-03-18T00:08:00.009Z,98449.68
2018-03-18T00:10:27.710Z,98445.72
2018-03-18T00:12:55.263Z,98437.88
2018-03-18T00:15:22.997Z,98455.06
2018-03-18T00:17:50.547Z,98435.81
2018-03-18T00:20:19.041Z,98448.27
2018-03-18T00:22:46.838Z,98453.98
2018-03-18T00:25:14.445Z,98436.38
2018-03-18T00:27:43.335Z,98433.27
2018-03-18T00:30:12.838Z,98445.76
2018-03-18T00:32:42.256Z,98430.72
2018-03-18T00:35:09.846Z,98448.23
2018-03-18T00:37:37.676Z,98440.41
2018-03-18T00:40:05.235Z,98443.84
2018-03-18T00:42:32.709Z,98444.33
2018-03-18T00:45:00.181Z,98437.73
2018-03-18T00:47:27.686Z,98438.33
2018-03-18T00:49:55.153Z,98441.34
2018-03-18T00:52:22.644Z,98447.11
2018-03-18T00:54:50.151Z,98446.58
2018-03-18T00:57:17.723Z,98438.19
2018-03-18T00:59:45.197Z,98441.08
2018-03-18T01:02:13.249Z,98430.31
2018-03-18T01:04:40.762Z,98438.73
2018-03-18T01:07:08.285Z,98434.67
2018-03-18T01:09:36.078Z,98438.48
2018-03-18T01:12:03.698Z,98424.88
2018-03-18T01:14:31.461Z,98422.31
2018-03-18T01:16:59.004Z,98422.03
2018-03-18T01:19:26.637Z,98417.05
2018-03-18T01:21:54.648Z,98426.74
2018-03-18T01:24:22.162Z,98425.45
2018-03-18T01:26:49.660Z,98400.91
2018-03-18T01:29:17.166Z,98414.66
2018-03-18T01:31:44.647Z,98392.98
2018-03-18T01:34:12.198Z,98401.05
2018-03-18T01:36:39.672Z,98401.13
2018-03-18T01:39:07.163Z,98403.84
2018-03-18T01:41:34.632Z,98405.91
2018-03-18T01:44:02.119Z,98410.64
2018-03-18T01:46:29.766Z,98407.20
2018-03-18T01:48:57.259Z,98406.33
2018-03-18T01:51:24.771Z,98394.45
2018-03-18T01:53:52.252Z,98400.08
2018-03-18T01:56:19.792Z,98405.36
2018-03-18T01:58:47.284Z,98390.01
2018-03-18T02:01:14.776Z,98403.39
2018-03-18T02:03:42.240Z,98394.91
2018-03-18T02:06:09.741Z,98394.17
2018-03-18T02:08:38.224Z,98397.14
2018-03-18T02:11:05.725Z,98424.44
2018-03-18T02:13:33.240Z,98402.78
2018-03-18T02:16:00.704Z,98399.52
2018-03-18T02:18:29.139Z,98406.52
2018-03-18T02:20:56.607Z,98404.88
2018-03-18T02:23:24.126Z,98415.82
2018-03-18T02:25:51.664Z,98415.63
2018-03-18T02:28:19.168Z,98412.36
2018-03-18T02:30:46.887Z,98415.73
2018-03-18T02:33:14.782Z,98425.27
2018-03-18T02:35:43.482Z,98415.95
2018-03-18T02:38:10.944Z,98412.72
2018-03-18T02:40:38.420Z,98410.27
2018-03-18T02:43:05.905Z,98415.17
2018-03-18T02:45:33.414Z,98427.82
2018-03-18T02:48:01.503Z,98404.58
2018-03-18T02:50:29.133Z,98427.94
2018-03-18T02:52:56.622Z,98407.34
2018-03-18T02:55:24.115Z,98412.02
2018-03-18T02:57:51.579Z,98403.22
2018-03-18T03:00:19.061Z,98407.08
2018-03-18T03:02:46.542Z,98406.84
2018-03-18T03:05:14.018Z,98402.16
2018-03-18T03:07:41.506Z,98411.17
2018-03-18T03:10:08.999Z,98406.48
2018-03-18T03:12:36.465Z,98403.98
2018-03-18T03:15:03.956Z,98402.97
2018-03-18T03:17:31.448Z,98407.80
2018-03-18T03:19:59.005Z,98408.43
2018-03-18T03:22:26.496Z,98415.02
2018-03-18T03:24:53.975Z,98401.45
2018-03-18T03:27:21.501Z,98402.22
2018-03-18T03:29:49.032Z,98405.34
2018-03-18T03:32:16.576Z,98406.98
2018-03-18T03:34:44.086Z,98417.63
2018-03-18T03:37:11.539Z,98404.08
2018-03-18T03:39:40.157Z,98404.89
2018-03-18T03:42:07.629Z,98403.19
2018-03-18T03:44:35.164Z,98414.80
2018-03-18T03:47:02.673Z,98413.08
2018-03-18T03:49:30.135Z,98404.71
2018-03-18T03:51:57.613Z,98406.74
2018-03-18T03:54:25.256Z,98413.41
2018-03-18T03:56:52.739Z,98403.80
2018-03-18T03:59:20.219Z,98418.38
2018-03-18T04:01:47.687Z,98419.50
2018-03-18T04:04:15.317Z,98417.23
2018-03-18T04:06:43.026Z,98413.48
2018-03-18T04:09:10.512Z,98409.02
2018-03-18T04:11:37.984Z,98408.53
2018-03-18T04:14:05.455Z,98413.86
2018-03-18T04:16:32.946Z,98418.55
2018-03-18T04:19:00.439Z,98414.82
2018-03-18T04:21:27.919Z,98409.31
2018-03-18T04:23:55.411Z,98426.88
2018-03-18T04:26:22.893Z,98417.22
2018-03-18T04:28:50.372Z,98432.23
2018-03-18T04:31:17.866Z,98426.00
2018-03-18T04:33:45.955Z,98439.86
2018-03-18T04:36:13.476Z,98431.34
2018-03-18T04:38:40.934Z,98427.50
2018-03-18T04:41:08.405Z,98432.93
2018-03-18T04:43:35.880Z,98444.67
2018-03-18T04:46:03.344Z,98441.70
2018-03-18T04:48:30.836Z,98442.73
2018-03-18T04:50:58.331Z,98432.24
2018-03-18T04:53:25.788Z,98444.72
2018-03-18T04:55:53.283Z,98432.44
2018-03-18T04:58:20.750Z,98436.14
2018-03-18T05:00:48.223Z,98438.33
2018-03-18T05:03:15.904Z,98446.75
2018-03-18T05:05:43.422Z,98438.39
2018-03-18T05:08:10.895Z,98451.98
2018-03-18T05:10:38.382Z,98443.00
2018-03-18T05:13:05.862Z,98442.69
2018-03-18T05:15:33.358Z,98450.02
2018-03-18T05:18:00.879Z,98448.30
2018-03-18T05:20:28.402Z,98459.17
2018-03-18T05:22:55.875Z,98469.97
2018-03-18T05:25:23.356Z,98462.48
2018-03-18T05:27:50.844Z,98459.47
2018-03-18T05:30:18.378Z,98465.41
2018-03-18T05:32:45.860Z,98472.39
2018-03-18T05:35:13.606Z,98474.61
2018-03-18T05:37:41.092Z,98470.31
2018-03-18T05:40:08.583Z,98488.18
2018-03-18T05:42:36.073Z,98480.61
2018-03-18T05:45:03.552Z,98474.36
2018-03-18T05:47:31.019Z,98474.64
2018-03-18T05:49:58.521Z,98467.44
2018-03-18T05:52:26.221Z,98464.64
2018-03-18T05:54:53.695Z,98494.75
2018-03-18T05:57:21.179Z,98478.78
2018-03-18T05:59:48.661Z,98469.87
2018-03-18T06:02:16.168Z,98469.78
2018-03-18T06:04:44.703Z,98474.19
2018-03-18T06:07:12.179Z,98481.08
2018-03-18T06:09:39.760Z,98481.63
2018-03-18T06:12:07.223Z,98483.08
2018-03-18T06:14:34.678Z,98500.16
2018-03-18T06:17:02.152Z,98493.41
2018-03-18T06:19:29.615Z,98490.34
2018-03-18T06:21:57.161Z,98497.47
2018-03-18T06:24:25.256Z,98500.48
2018-03-18T06:26:52.746Z,98505.55
2018-03-18T06:29:20.224Z,98492.52
2018-03-18T06:31:47.723Z,98496.26
2018-03-18T06:34:15.340Z,98515.83
2018-03-18T06:36:42.823Z,98508.80
2018-03-18T06:39:10.311Z,98513.20
2018-03-18T06:41:37.794Z,98515.74
2018-03-18T06:44:05.279Z,98519.54
2018-03-18T06:46:32.736Z,98527.50
2018-03-18T06:49:00.285Z,98526.85
2018-03-18T06:51:27.749Z,98523.74
2018-03-18T06:53:55.212Z,98527.31
2018-03-18T06:56:22.675Z,98529.59
2018-03-18T06:58:50.146Z,98530.49
2018-03-18T07:01:17.663Z,98540.25
2018-03-18T07:03:45.136Z,98528.81
2018-03-18T07:06:13.372Z,98541.33
2018-03-18T07:08:40.859Z,98550.23
2018-03-18T07:11:09.206Z,98549.01
2018-03-18T07:13:36.677Z,98540.61
2018-03-18T07:16:04.220Z,98546.17
2018-03-18T07:18:31.712Z,98551.45
2018-03-18T07:20:59.176Z,98551.14
2018-03-18T07:23:26.646Z,98550.86
2018-03-18T07:25:54.123Z,98553.43
2018-03-18T07:28:21.572Z,98550.52
2018-03-18T07:30:49.112Z,98574.13
2018-03-18T07:33:16.576Z,98554.27
2018-03-18T07:35:44.076Z,98554.58
2018-03-18T07:38:11.770Z,98555.59
2018-03-18T07:40:39.209Z,98554.75
2018-03-18T07:43:06.681Z,98561.33
2018-03-18T07:45:34.183Z,98561.92
2018-03-18T07:48:01.733Z,98556.67
2018-03-18T07:50:29.299Z,98557.99
2018-03-18T07:52:56.801Z,98563.84
2018-03-18T07:55:24.328Z,98559.81
2018-03-18T07:57:51.823Z,98569.22
2018-03-18T08:00:19.294Z,98567.25
2018-03-18T08:02:46.765Z,98573.23
2018-03-18T08:05:14.239Z,98576.89
2018-03-18T08:07:43.044Z,98576.47
2018-03-18T08:10:10.517Z,98575.41
2018-03-18T08:12:37.968Z,98582.69
2018-03-18T08:15:05.449Z,98581.08
2018-03-18T08:17:33.997Z,98587.14
2018-03-18T08:20:01.464Z,98593.13
2018-03-18T08:22:29.107Z,98587.16
2018-03-18T08:24:56.571Z,98585.18
2018-03-18T08:27:24.020Z,98598.05
2018-03-18T08:29:51.522Z,98599.45
2018-03-18T08:32:18.982Z,98602.62
2018-03-18T08:34:46.493Z,98606.81
2018-03-18T08:37:14.019Z,98607.25
2018-03-18T08:39:41.498Z,98603.77
2018-03-18T08:42:08.963Z,98609.55
2018-03-18T08:44:36.614Z,98602.80
2018-03-18T08:47:04.136Z,98604.86
2018-03-18T08:49:31.631Z,98608.47
2018-03-18T08:51:59.597Z,98599.59
2018-03-18T08:54:27.176Z,98603.12
2018-03-18T08:56:54.863Z,98615.26
2018-03-18T08:59:22.324Z,98620.20
2018-03-18T09:01:49.785Z,98616.47
2018-03-18T09:04:17.317Z,98615.47
2018-03-18T09:06:44.803Z,98606.48
2018-03-18T09:09:12.292Z,98612.53
2018-03-18T09:11:39.803Z,98614.18
2018-03-18T09:14:07.289Z,98609.52
2018-03-18T09:16:34.769Z,98604.06
2018-03-18T09:19:02.268Z,98606.34
2018-03-18T09:21:29.784Z,98599.53
2018-03-18T09:23:57.241Z,98601.52
2018-03-18T09:26:24.703Z,98610.72
2018-03-18T09:28:52.191Z,98596.91
2018-03-18T09:31:19.680Z,98592.56
2018-03-18T09:33:47.108Z,98602.36
2018-03-18T09:36:14.615Z,98600.20
2018-03-18T09:38:42.095Z,98597.08
2018-03-18T09:41:09.575Z,98600.51
2018-03-18T09:43:37.060Z,98605.47
2018-03-18T09:46:04.550Z,98596.57
2018-03-18T09:48:32.042Z,98596.63
2018-03-18T09:50:59.510Z,98601.11
2018-03-18T09:53:27.023Z,98592.03
2018-03-18T09:55:54.491Z,98606.97
2018-03-18T09:58:21.945Z,98605.00
2018-03-18T10:00:49.437Z,98600.69
2018-03-18T10:03:16.983Z,98605.01
2018-03-18T10:05:44.462Z,98602.41
2018-03-18T10:08:11.928Z,98606.86
2018-03-18T10:10:39.390Z,98591.92
2018-03-18T10:13:06.854Z,98590.45
2018-03-18T10:15:34.318Z,98597.45
2018-03-18T10:18:01.812Z,98598.59
2018-03-18T10:20:29.885Z,98600.52
2018-03-18T10:22:57.376Z,98596.48
2018-03-18T10:25:24.844Z,98585.45
2018-03-18T10:27:52.317Z,98596.88
2018-03-18T10:30:19.769Z,98592.98
2018-03-18T10:32:47.234Z,98600.34
2018-03-18T10:35:14.742Z,98604.81
2018-03-18T10:37:42.384Z,98597.23
2018-03-18T10:40:10.816Z,98600.39
2018-03-18T10:42:38.327Z,98611.50
2018-03-18T10:45:05.795Z,98612.39
2018-03-18T10:47:33.291Z,98613.09
2018-03-18T10:50:00.774Z,98611.00
2018-03-18T10:52:28.280Z,98624.26
2018-03-18T10:54:55.746Z,98627.16
2018-03-18T10:57:23.211Z,98632.91
2018-03-18T10:59:50.682Z,98632.34
2018-03-18T11:02:18.280Z,98633.16
2018-03-18T11:04:45.760Z,98629.05
2018-03-18T11:07:13.224Z,98621.05
2018-03-18T11:09:40.689Z,98620.98
2018-03-18T11:12:08.204Z,98613.34
2018-03-18T11:14:36.756Z,98605.52
2018-03-18T11:17:04.274Z,98616.83
2018-03-18T11:19:31.762Z,98613.45
2018-03-18T11:21:59.409Z,98612.85
2018-03-18T11:24:27.280Z,98606.02
2018-03-18T11:26:54.974Z,98612.21
2018-03-18T11:29:22.488Z,98615.81
2018-03-18T11:31:50.132Z,98603.08
2018-03-18T11:34:23.692Z,98601.52
2018-03-18T11:36:52.204Z,98619.05
2018-03-18T11:44:25.269Z,98608.59
2018-03-18T11:46:52.746Z,98599.37
2018-03-18T11:49:25.341Z,98594.33
2018-03-18T11:51:53.117Z,98588.11
2018-03-18T11:54:20.701Z,98596.58
2018-03-18T11:56:52.886Z,98592.31
2018-03-18T11:59:20.565Z,98595.22
2018-03-18T12:01:48.630Z,98581.33
2018-03-18T12:04:17.385Z,98583.89
2018-03-18T12:06:45.408Z,98581.36
2018-03-18T12:09:13.315Z,98585.16
2018-03-18T12:11:46.061Z,98595.16
2018-03-18T12:14:13.646Z,98587.16
2018-03-18T12:16:42.600Z,98594.17
2018-03-18T12:19:10.247Z,98586.66
2018-03-18T12:21:37.761Z,98592.64
2018-03-18T12:24:05.786Z,98598.38
2018-03-18T12:26:35.956Z,98601.90
2018-03-18T12:29:03.487Z,98596.09
2018-03-18T12:31:30.988Z,98596.17
2018-03-18T12:33:59.735Z,98588.27
2018-03-18T12:36:27.456Z,98588.25
2018-03-18T12:38:56.264Z,98592.80
2018-03-18T12:41:24.522Z,98590.00
2018-03-18T12:43:52.081Z,98600.35
2018-03-18T12:46:19.568Z,98592.89
2018-03-18T12:48:48.582Z,98594.69
2018-03-18T12:51:16.772Z,98598.86
2018-03-18T12:53:44.256Z,98605.98
2018-03-18T12:56:11.871Z,98609.41
2018-03-18T12:58:40.416Z,98604.62
2018-03-18T13:01:09.682Z,98617.03
2018-03-18T13:03:37.186Z,98620.94
2018-03-18T13:06:04.678Z,98624.89
2018-03-18T13:08:32.228Z,98624.48
2018-03-18T13:10:59.791Z,98631.23
2018-03-18T13:13:28.849Z,98615.56
2018-03-18T13:15:56.375Z,98618.27
2018-03-18T13:18:23.943Z,98624.06
2018-03-18T13:20:52.386Z,98610.67
2018-03-18T13:23:19.863Z,98619.44
2018-03-18T13:25:47.324Z,98619.77
2018-03-18T13:28:15.794Z,98613.14
2018-03-18T13:30:44.113Z,98618.97
2018-03-18T13:33:12.830Z,98611.22
2018-03-18T13:35:41.783Z,98616.48
2018-03-18T13:38:09.363Z,98627.29
2018-03-18T13:40:37.011Z,98630.54
2018-03-18T13:43:05.044Z,98631.71
2018-03-18T13:45:32.679Z,98626.84
2018-03-18T13:48:00.152Z,98630.53
2018-03-18T13:50:27.618Z,98633.56
2018-03-18T13:52:55.150Z,98639.34
2018-03-18T13:55:22.645Z,98639.44
2018-03-18T13:57:50.173Z,98640.53
2018-03-18T14:00:17.663Z,98641.55
2018-03-18T14:02:45.135Z,98641.66
2018-03-18T14:05:13.701Z,98637.41
2018-03-18T14:07:41.233Z,98636.98
2018-03-18T14:10:08.708Z,98634.70
2018-03-18T14:12:36.209Z,98642.23
2018-03-18T14:15:03.763Z,98639.67
2018-03-18T14:17:31.228Z,98644.59
2018-03-18T14:19:58.973Z,98644.67
2018-03-18T14:22:26.491Z,98648.70
2018-03-18T14:27:26.269Z,98646.38
2018-03-18T14:29:53.749Z,98657.34
2018-03-18T14:32:21.232Z,98650.14
2018-03-18T14:34:48.784Z,98644.70
2018-03-18T14:37:16.311Z,98639.52
2018-03-18T14:39:43.777Z,98639.88
2018-03-18T14:42:11.407Z,98635.92
2018-03-18T14:44:39.058Z,98623.42
2018-03-18T14:47:06.588Z,98616.95
2018-03-18T14:49:34.102Z,98613.20
2018-03-18T14:52:02.253Z,98626.42
2018-03-18T14:54:29.736Z,98635.46
2018-03-18T14:56:57.212Z,98630.33
2018-03-18T14:59:24.708Z,98635.46
2018-03-18T15:01:52.185Z,98631.12
2018-03-18T15:04:19.704Z,98629.65
2018-03-18T15:06:47.276Z,98636.89
2018-03-18T15:09:14.798Z,98637.41
2018-03-18T15:11:42.291Z,98632.88
2018-03-18T15:14:09.746Z,98644.92
2018-03-18T15:16:37.235Z,98648.14
2018-03-18T15:19:04.802Z,98656.77
2018-03-18T15:21:32.420Z,98657.56
2018-03-18T15:24:00.580Z,98665.47
2018-03-18T15:26:28.148Z,98665.21
2018-03-18T15:28:55.652Z,98664.33
2018-03-18T15:31:23.260Z,98666.08
2018-03-18T15:33:50.827Z,98668.09
2018-03-18T15:36:18.296Z,98668.91
2018-03-18T15:41:21.969Z,98695.01
2018-03-18T15:43:49.510Z,98691.94
2018-03-18T15:46:17.276Z,98691.89
2018-03-18T15:48:46.408Z,98694.05
2018-03-18T15:51:15.736Z,98695.36
2018-03-18T15:53:43.286Z,98706.05
2018-03-18T15:56:10.798Z,98693.06
2018-03-18T15:58:38.331Z,98683.78
2018-03-18T16:01:05.823Z,98691.66
2018-03-18T16:03:33.393Z,98692.94
2018-03-18T16:06:01.820Z,98694.48
2018-03-18T16:08:30.197Z,98697.97
2018-03-18T16:10:57.726Z,98701.16
2018-03-18T16:13:25.238Z,98701.57
2018-03-18T16:15:53.130Z,98694.91
2018-03-18T16:18:20.690Z,98703.68
2018-03-18T16:20:48.151Z,98702.84
2018-03-18T16:23:15.669Z,98701.50
2018-03-18T16:25:44.501Z,98708.28
2018-03-18T16:28:12.043Z,98708.28
2018-03-18T16:30:51.239Z,98712.97
2018-03-18T16:33:20.159Z,98707.77
2018-03-18T16:35:48.379Z,98710.23
2018-03-18T16:38:18.592Z,98711.52
2018-03-18T16:40:46.419Z,98707.70
2018-03-18T16:43:14.189Z,98724.78
2018-03-18T16:45:42.686Z,98736.19
2018-03-18T16:48:10.165Z,98737.52
2018-03-18T16:50:37.797Z,98740.73
2018-03-18T16:53:05.407Z,98743.36
2018-03-18T16:55:32.909Z,98745.77
2018-03-18T16:58:00.429Z,98752.81
2018-03-18T17:00:29.004Z,98750.77
2018-03-18T17:02:56.524Z,98751.50
2018-03-18T17:05:24.056Z,98756.04
2018-03-18T17:07:51.534Z,98755.29
2018-03-18T17:10:19.708Z,98753.88
2018-03-18T17:12:47.385Z,98755.88
2018-03-18T17:15:15.092Z,98755.73
2018-03-18T17:17:42.631Z,98764.17
2018-03-18T17:20:10.233Z,98763.81
2018-03-18T17:22:40.699Z,98770.13
2018-03-18T17:25:08.195Z,98769.40
2018-03-18T17:27:35.759Z,98777.70
2018-03-18T17:30:03.275Z,98781.06
2018-03-18T17:32:33.749Z,98784.23
2018-03-18T17:35:01.293Z,98794.59
2018-03-18T17:37:28.824Z,98798.05
2018-03-18T17:39:56.433Z,98798.34
2018-03-18T17:42:24.377Z,98800.59
2018-03-18T17:45:05.560Z,98804.87
2018-03-18T17:47:44.749Z,98805.88
2018-03-18T17:50:24.025Z,98801.33
2018-03-18T17:53:04.381Z,98797.31
2018-03-18T17:55:31.903Z,98803.23
2018-03-18T17:57:59.410Z,98794.51
2018-03-18T18:00:26.936Z,98796.91
2018-03-18T18:02:54.484Z,98805.42
2018-03-18T18:05:21.960Z,98804.63
2018-03-18T18:07:50.496Z,98807.97
2018-03-18T18:10:19.265Z,98816.86
2018-03-18T18:12:46.787Z,98820.06
2018-03-18T18:15:14.393Z,98816.64
2018-03-18T18:17:43.025Z,98816.52
2018-03-18T18:20:10.532Z,98821.93
2018-03-18T18:22:40.828Z,98816.31
2018-03-18T18:25:08.932Z,98828.08
2018-03-18T18:27:36.443Z,98825.79
2018-03-18T18:30:03.972Z,98830.71
2018-03-18T18:32:32.948Z,98835.87
2018-03-18T18:35:00.473Z,98842.11
2018-03-18T18:37:27.971Z,98841.77
2018-03-18T18:39:55.486Z,98841.33
2018-03-18T18:42:25.063Z,98842.36
2018-03-18T18:44:52.597Z,98842.58
2018-03-18T18:47:20.106Z,98856.14
2018-03-18T18:49:47.614Z,98853.20
2018-03-18T18:52:15.446Z,98855.79
2018-03-18T18:54:43.344Z,98854.92
2018-03-18T18:57:11.064Z,98860.88
2018-03-18T18:59:38.639Z,98862.85
2018-03-18T19:02:06.148Z,98874.14
2018-03-18T19:04:33.671Z,98870.22
2018-03-18T19:07:01.205Z,98871.16
2018-03-18T19:09:28.816Z,98861.07
2018-03-18T19:11:56.353Z,98865.28
2018-03-18T19:14:23.876Z,98866.70
2018-03-18T19:16:51.517Z,98870.37
2018-03-18T19:19:19.972Z,98875.56
2018-03-18T19:21:47.637Z,98883.09
2018-03-18T19:24:15.184Z,98883.39
2018-03-18T19:26:42.718Z,98881.77
2018-03-18T19:29:10.439Z,98883.29
2018-03-18T19:31:38.066Z,98881.30
2018-03-18T19:34:05.634Z,98880.17
2018-03-18T19:36:33.138Z,98879.78
2018-03-18T19:39:01.697Z,98885.37
2018-03-18T19:41:29.461Z,98882.50
2018-03-18T19:43:58.164Z,98888.82
2018-03-18T19:46:25.880Z,98888.08
2018-03-18T19:48:53.421Z,98880.84
2018-03-18T19:51:20.928Z,98896.14
2018-03-18T19:53:49.728Z,98899.39
2018-03-18T19:56:17.164Z,98898.86
2018-03-18T19:58:45.061Z,98899.81
2018-03-18T20:01:14.763Z,98903.53
2018-03-18T20:03:43.104Z,98896.47
2018-03-18T20:06:10.637Z,98900.55
2018-03-18T20:08:38.589Z,98898.37
2018-03-18T20:11:09.109Z,98920.92
2018-03-18T20:13:36.704Z,98908.34
2018-03-18T20:16:04.495Z,98912.34
2018-03-18T20:18:32.785Z,98910.27
2018-03-18T20:21:00.391Z,98917.23
2018-03-18T20:23:27.887Z,98913.00
2018-03-18T20:25:55.468Z,98914.80
2018-03-18T20:28:23.009Z,98911.32
2018-03-18T20:30:50.577Z,98914.51
2018-03-18T20:33:18.092Z,98915.00
2018-03-18T20:35:46.657Z,98916.66
2018-03-18T20:38:14.198Z,98924.48
2018-03-18T20:40:41.719Z,98918.97
2018-03-18T20:43:09.245Z,98917.00
2018-03-18T20:45:36.820Z,98921.55
2018-03-18T20:48:04.358Z,98917.72
2018-03-18T20:50:33.455Z,98907.48
2018-03-18T20:53:00.988Z,98912.71
2018-03-18T20:55:28.466Z,98908.55
2018-03-18T20:57:55.963Z,98914.28
2018-03-18T21:00:23.922Z,98904.31
2018-03-18T21:02:51.847Z,98905.48
2018-03-18T21:05:19.411Z,98903.22
2018-03-18T21:07:46.915Z,98897.55
2018-03-18T21:10:17.544Z,98898.22
2018-03-18T21:12:45.115Z,98896.06
2018-03-18T21:15:15.767Z,98891.29
2018-03-18T21:17:43.320Z,98890.92
2018-03-18T21:20:10.856Z,98891.08
2018-03-18T21:22:38.352Z,98898.19
2018-03-18T21:25:05.844Z,98892.25
2018-03-18T21:27:33.328Z,98897.33
2018-03-18T21:30:00.796Z,98905.98
2018-03-18T21:32:28.272Z,98901.59
2018-03-18T21:34:55.748Z,98906.26
2018-03-18T21:37:23.231Z,98900.66
2018-03-18T21:39:50.752Z,98906.86
2018-03-18T21:42:22.510Z,98910.05
2018-03-18T21:44:50.028Z,98914.13
2018-03-18T21:47:19.005Z,98915.86
2018-03-18T21:49:46.521Z,98915.83
2018-03-18T21:52:14.025Z,98913.27
2018-03-18T21:54:41.505Z,98915.23
2018-03-18T21:57:09.039Z,98921.23
2018-03-18T21:59:36.555Z,98911.05
2018-03-18T22:02:04.065Z,98915.97
2018-03-18T22:04:32.365Z,98915.75
2018-03-18T22:06:59.860Z,98900.91
2018-03-18T22:09:27.350Z,98906.08
2018-03-18T22:11:55.699Z,98907.98
2018-03-18T22:14:23.160Z,98914.22
2018-03-18T22:16:50.643Z,98916.48
2018-03-18T22:19:19.967Z,98902.07
2018-03-18T22:21:47.443Z,98894.48
2018-03-18T22:24:14.932Z,98904.17
2018-03-18T22:26:42.483Z,98905.42
2018-03-18T22:29:09.988Z,98894.28
2018-03-18T22:31:37.456Z,98891.52
2018-03-18T22:34:05.046Z,98899.42
2018-03-18T22:36:32.555Z,98890.78
2018-03-18T22:39:00.096Z,98896.95
2018-03-18T22:41:27.575Z,98890.09
2018-03-18T22:43:55.122Z,98899.73
2018-03-18T22:46:22.623Z,98899.98
2018-03-18T22:48:50.100Z,98903.87
2018-03-18T22:51:18.111Z,98905.92
2018-03-18T22:53:45.703Z,98909.37
2018-03-18T22:56:13.174Z,98906.42
2018-03-18T22:58:40.654Z,98907.77
2018-03-18T23:01:08.179Z,98910.66
2018-03-18T23:03:35.672Z,98910.91
2018-03-18T23:06:03.165Z,98908.19
2018-03-18T23:08:30.901Z,98908.95
2018-03-18T23:10:58.373Z,98907.73
2018-03-18T23:13:25.907Z,98906.27
2018-03-18T23:15:53.423Z,98912.22
2018-03-18T23:18:20.895Z,98912.83
2018-03-18T23:20:48.595Z,98903.31
2018-03-18T23:23:16.157Z,98905.94
2018-03-18T23:25:43.668Z,98915.48
2018-03-18T23:28:11.181Z,98915.59
2018-03-18T23:30:38.646Z,98920.69
2018-03-18T23:33:06.154Z,98919.77
2018-03-18T23:35:33.667Z,98913.03
2018-03-18T23:38:01.206Z,98907.94
2018-03-18T23:40:29.765Z,98903.83
2018-03-18T23:42:57.277Z,98909.84
2018-03-18T23:45:24.768Z,98914.34
2018-03-18T23:47:52.281Z,98906.91
2018-03-18T23:50:19.946Z,98913.50
2018-03-18T23:52:47.456Z,98913.28
2018-03-18T23:55:14.994Z,98913.27
2018-03-18T23:57:42.554Z,98918.00
